sensor_id;sensor_type;location;lat;lon;timestamp;pressure;altitude;pressure_sealevel;temperature;humidity
73240;BME280;61452;40.054;4.110;2023-05-23T00:02:02;101395.53;;;19.75;56.40
73240;BME280;61452;40.054;4.110;2023-05-23T00:07:09;101377.16;;;19.72;56.32
73240;BME280;61452;40.054;4.110;2023-05-23T00:12:11;101375.34;;;19.72;56.22
73240;BME280;61452;40.054;4.110;2023-05-23T00:17:13;101379.81;;;19.72;56.33
73240;BME280;61452;40.054;4.110;2023-05-23T00:22:15;101377.91;;;19.74;56.54
73240;BME280;61452;40.054;4.110;2023-05-23T00:27:18;101378.75;;;19.74;56.72
73240;BME280;61452;40.054;4.110;2023-05-23T00:32:20;101374.38;;;19.73;56.60
73240;BME280;61452;40.054;4.110;2023-05-23T00:37:23;101366.41;;;19.73;56.57
73240;BME280;61452;40.054;4.110;2023-05-23T00:42:25;101355.75;;;19.73;56.57
73240;BME280;61452;40.054;4.110;2023-05-23T00:47:27;101346.81;;;19.74;56.40
73240;BME280;61452;40.054;4.110;2023-05-23T00:52:30;101349.47;;;19.74;56.44
73240;BME280;61452;40.054;4.110;2023-05-23T00:57:32;101344.38;;;19.71;56.39
73240;BME280;61452;40.054;4.110;2023-05-23T01:02:45;101337.13;;;19.73;56.11
73240;BME280;61452;40.054;4.110;2023-05-23T01:07:49;101345.97;;;19.74;56.29
73240;BME280;61452;40.054;4.110;2023-05-23T01:18:13;101338.19;;;19.71;56.30
73240;BME280;61452;40.054;4.110;2023-05-23T01:28:50;101339.91;;;19.72;56.21
73240;BME280;61452;40.054;4.110;2023-05-23T01:33:55;101345.97;;;19.74;56.23
73240;BME280;61452;40.054;4.110;2023-05-23T01:38:58;101348.84;;;19.71;56.44
73240;BME280;61452;40.054;4.110;2023-05-23T01:44:02;101345.09;;;19.73;56.33
73240;BME280;61452;40.054;4.110;2023-05-23T01:49:07;101351.28;;;19.74;56.10
73240;BME280;61452;40.054;4.110;2023-05-23T01:54:10;101339.78;;;19.73;56.30
73240;BME280;61452;40.054;4.110;2023-05-23T01:59:13;101346.19;;;19.71;56.48
73240;BME280;61452;40.054;4.110;2023-05-23T02:04:16;101340.84;;;19.71;56.43
73240;BME280;61452;40.054;4.110;2023-05-23T02:09:18;101333.72;;;19.71;56.43
73240;BME280;61452;40.054;4.110;2023-05-23T02:14:20;101338.09;;;19.72;56.27
73240;BME280;61452;40.054;4.110;2023-05-23T02:19:22;101325.00;;;19.69;56.16
73240;BME280;61452;40.054;4.110;2023-05-23T02:24:25;101322.22;;;19.71;56.24
73240;BME280;61452;40.054;4.110;2023-05-23T02:29:27;101319.69;;;19.69;56.38
73240;BME280;61452;40.054;4.110;2023-05-23T02:34:29;101312.44;;;19.71;56.12
73240;BME280;61452;40.054;4.110;2023-05-23T02:39:34;101319.56;;;19.71;56.14
73240;BME280;61452;40.054;4.110;2023-05-23T02:44:36;101323.06;;;19.71;56.23
73240;BME280;61452;40.054;4.110;2023-05-23T02:49:40;101332.28;;;19.67;56.45
73240;BME280;61452;40.054;4.110;2023-05-23T02:54:42;101335.66;;;19.69;56.33
73240;BME280;61452;40.054;4.110;2023-05-23T02:59:44;101335.53;;;19.71;56.47
73240;BME280;61452;40.054;4.110;2023-05-23T03:04:46;101343.41;;;19.72;56.36
73240;BME280;61452;40.054;4.110;2023-05-23T03:09:49;101340.84;;;19.71;56.30
73240;BME280;61452;40.054;4.110;2023-05-23T03:14:51;101342.66;;;19.70;56.15
73240;BME280;61452;40.054;4.110;2023-05-23T03:19:53;101334.31;;;19.64;56.23
73240;BME280;61452;40.054;4.110;2023-05-23T03:24:55;101354.28;;;19.69;56.40
73240;BME280;61452;40.054;4.110;2023-05-23T03:29:57;101349.81;;;19.70;56.49
73240;BME280;61452;40.054;4.110;2023-05-23T03:34:59;101357.94;;;19.68;56.27
73240;BME280;61452;40.054;4.110;2023-05-23T03:40:01;101355.28;;;19.68;56.10
73240;BME280;61452;40.054;4.110;2023-05-23T03:45:05;101377.38;;;19.69;56.19
73240;BME280;61452;40.054;4.110;2023-05-23T03:50:08;101378.38;;;19.68;56.26
73240;BME280;61452;40.054;4.110;2023-05-23T03:55:11;101359.59;;;19.69;56.26
73240;BME280;61452;40.054;4.110;2023-05-23T04:00:14;101361.41;;;19.69;56.17
73240;BME280;61452;40.054;4.110;2023-05-23T04:05:18;101354.41;;;19.68;56.09
73240;BME280;61452;40.054;4.110;2023-05-23T04:10:22;101345.59;;;19.67;55.89
73240;BME280;61452;40.054;4.110;2023-05-23T04:15:24;101347.16;;;19.70;55.90
73240;BME280;61452;40.054;4.110;2023-05-23T04:20:31;101363.13;;;19.70;55.97
73240;BME280;61452;40.054;4.110;2023-05-23T04:25:34;101359.84;;;19.66;55.99
73240;BME280;61452;40.054;4.110;2023-05-23T04:30:42;101372.19;;;19.67;56.26
73240;BME280;61452;40.054;4.110;2023-05-23T04:35:45;101374.72;;;19.69;56.30
73240;BME280;61452;40.054;4.110;2023-05-23T04:40:47;101366.88;;;19.67;56.25
73240;BME280;61452;40.054;4.110;2023-05-23T04:46:19;101363.38;;;19.67;56.01
73240;BME280;61452;40.054;4.110;2023-05-23T04:51:45;101347.28;;;19.68;55.95
73240;BME280;61452;40.054;4.110;2023-05-23T04:57:04;101358.03;;;19.67;55.93
73240;BME280;61452;40.054;4.110;2023-05-23T05:02:07;101358.03;;;19.67;56.04
73240;BME280;61452;40.054;4.110;2023-05-23T05:07:11;101357.09;;;19.68;55.88
73240;BME280;61452;40.054;4.110;2023-05-23T05:12:14;101352.59;;;19.68;55.79
73240;BME280;61452;40.054;4.110;2023-05-23T05:17:16;101361.56;;;19.67;55.95
73240;BME280;61452;40.054;4.110;2023-05-23T05:22:36;101364.22;;;19.67;55.96
73240;BME280;61452;40.054;4.110;2023-05-23T05:27:42;101374.72;;;19.69;55.98
73240;BME280;61452;40.054;4.110;2023-05-23T05:32:48;101363.25;;;19.68;55.84
73240;BME280;61452;40.054;4.110;2023-05-23T05:37:52;101355.38;;;19.67;56.21
73240;BME280;61452;40.054;4.110;2023-05-23T05:42:54;101356.22;;;19.67;56.17
73240;BME280;61452;40.054;4.110;2023-05-23T05:47:57;101351.88;;;19.66;56.17
73240;BME280;61452;40.054;4.110;2023-05-23T05:53:00;101358.91;;;19.67;56.08
73240;BME280;61452;40.054;4.110;2023-05-23T05:58:03;101341.22;;;19.66;56.40
73240;BME280;61452;40.054;4.110;2023-05-23T06:03:16;101349.22;;;19.66;56.31
73240;BME280;61452;40.054;4.110;2023-05-23T06:08:26;101334.94;;;19.67;56.20
73240;BME280;61452;40.054;4.110;2023-05-23T06:13:29;101341.13;;;19.68;56.28
73240;BME280;61452;40.054;4.110;2023-05-23T06:18:31;101350.06;;;19.67;56.28
73240;BME280;61452;40.054;4.110;2023-05-23T06:23:33;101337.72;;;19.66;56.42
73240;BME280;61452;40.054;4.110;2023-05-23T06:28:39;101318.13;;;19.67;56.23
73240;BME280;61452;40.054;4.110;2023-05-23T06:33:41;101280.00;;;19.66;56.38
73240;BME280;61452;40.054;4.110;2023-05-23T06:38:44;101306.50;;;19.68;56.31
73240;BME280;61452;40.054;4.110;2023-05-23T06:43:46;101311.94;;;19.66;56.44
73240;BME280;61452;40.054;4.110;2023-05-23T06:48:56;101295.00;;;19.67;56.14
73240;BME280;61452;40.054;4.110;2023-05-23T06:54:16;101319.94;;;19.66;56.36
73240;BME280;61452;40.054;4.110;2023-05-23T06:59:19;101332.38;;;19.66;56.35
73240;BME280;61452;40.054;4.110;2023-05-23T07:04:22;101335.06;;;19.66;56.38
73240;BME280;61452;40.054;4.110;2023-05-23T07:09:24;101351.88;;;19.66;56.48
73240;BME280;61452;40.054;4.110;2023-05-23T07:14:36;101360.72;;;19.67;56.45
73240;BME280;61452;40.054;4.110;2023-05-23T07:19:39;101382.84;;;19.67;56.47
73240;BME280;61452;40.054;4.110;2023-05-23T07:24:41;101381.03;;;19.68;56.54
73240;BME280;61452;40.054;4.110;2023-05-23T07:29:44;101373.06;;;19.68;56.33
73240;BME280;61452;40.054;4.110;2023-05-23T07:34:47;101380.19;;;19.67;56.20
73240;BME280;61452;40.054;4.110;2023-05-23T07:39:49;101374.13;;;19.65;56.42
73240;BME280;61452;40.054;4.110;2023-05-23T07:44:51;101378.38;;;19.68;56.42
73240;BME280;61452;40.054;4.110;2023-05-23T07:49:54;101383.69;;;19.68;56.44
73240;BME280;61452;40.054;4.110;2023-05-23T07:54:58;101384.66;;;19.67;56.35
73240;BME280;61452;40.054;4.110;2023-05-23T08:00:01;101389.03;;;19.68;56.55
73240;BME280;61452;40.054;4.110;2023-05-23T08:05:04;101385.72;;;19.64;56.49
73240;BME280;61452;40.054;4.110;2023-05-23T08:10:07;101397.84;;;19.68;56.54
73240;BME280;61452;40.054;4.110;2023-05-23T08:15:12;101404.13;;;19.67;56.60
73240;BME280;61452;40.054;4.110;2023-05-23T08:20:18;101405.00;;;19.68;56.67
73240;BME280;61452;40.054;4.110;2023-05-23T08:25:20;101405.84;;;19.68;56.50
73240;BME280;61452;40.054;4.110;2023-05-23T08:30:23;101394.34;;;19.68;56.42
73240;BME280;61452;40.054;4.110;2023-05-23T08:35:27;101400.63;;;19.67;56.28
73240;BME280;61452;40.054;4.110;2023-05-23T08:40:36;101408.50;;;19.68;56.10
73240;BME280;61452;40.054;4.110;2023-05-23T08:45:44;101402.19;;;19.69;56.12
73240;BME280;61452;40.054;4.110;2023-05-23T08:50:51;101400.38;;;19.70;56.01
73240;BME280;61452;40.054;4.110;2023-05-23T08:55:56;101401.34;;;19.69;55.96
73240;BME280;61452;40.054;4.110;2023-05-23T09:01:10;101397.97;;;19.67;56.06
73240;BME280;61452;40.054;4.110;2023-05-23T09:06:13;101387.22;;;19.68;56.07
73240;BME280;61452;40.054;4.110;2023-05-23T09:11:15;101395.06;;;19.70;56.17
73240;BME280;61452;40.054;4.110;2023-05-23T09:16:19;101394.34;;;19.68;56.21
73240;BME280;61452;40.054;4.110;2023-05-23T09:21:30;101404.00;;;19.69;56.26
73240;BME280;61452;40.054;4.110;2023-05-23T09:26:45;101403.03;;;19.70;56.41
73240;BME280;61452;40.054;4.110;2023-05-23T09:31:48;101410.91;;;19.71;56.35
73240;BME280;61452;40.054;4.110;2023-05-23T09:36:53;101408.38;;;19.70;56.29
73240;BME280;61452;40.054;4.110;2023-05-23T09:41:58;101403.88;;;19.70;56.28
73240;BME280;61452;40.054;4.110;2023-05-23T09:47:05;101410.06;;;19.71;56.49
73240;BME280;61452;40.054;4.110;2023-05-23T09:52:07;101411.75;;;19.72;56.46
73240;BME280;61452;40.054;4.110;2023-05-23T09:57:10;101409.22;;;19.70;56.60
73240;BME280;61452;40.054;4.110;2023-05-23T10:02:14;101409.09;;;19.72;56.78
73240;BME280;61452;40.054;4.110;2023-05-23T10:07:19;101407.28;;;19.72;56.84
73240;BME280;61452;40.054;4.110;2023-05-23T10:12:43;101411.66;;;19.73;56.81
73240;BME280;61452;40.054;4.110;2023-05-23T10:18:11;101403.88;;;19.70;56.93
73240;BME280;61452;40.054;4.110;2023-05-23T10:23:15;101409.00;;;19.73;56.73
73240;BME280;61452;40.054;4.110;2023-05-23T10:28:18;101403.53;;;19.75;56.67
73240;BME280;61452;40.054;4.110;2023-05-23T10:33:20;101416.97;;;19.73;56.68
73240;BME280;61452;40.054;4.110;2023-05-23T10:38:45;101402.72;;;19.74;56.65
73240;BME280;61452;40.054;4.110;2023-05-23T10:44:20;101401.84;;;19.74;56.61
73240;BME280;61452;40.054;4.110;2023-05-23T10:54:46;101408.84;;;19.75;56.58
73240;BME280;61452;40.054;4.110;2023-05-23T10:59:49;101408.84;;;19.75;56.79
73240;BME280;61452;40.054;4.110;2023-05-23T11:10:59;101422.31;;;19.73;56.84
73240;BME280;61452;40.054;4.110;2023-05-23T11:16:31;101432.00;;;19.74;56.89
73240;BME280;61452;40.054;4.110;2023-05-23T11:21:34;101431.84;;;19.76;56.87
73240;BME280;61452;40.054;4.110;2023-05-23T11:26:38;101429.19;;;19.76;56.76
73240;BME280;61452;40.054;4.110;2023-05-23T11:31:40;101432.69;;;19.76;56.64
73240;BME280;61452;40.054;4.110;2023-05-23T11:36:42;101431.75;;;19.77;56.58
73240;BME280;61452;40.054;4.110;2023-05-23T11:41:44;101428.13;;;19.78;56.58
73240;BME280;61452;40.054;4.110;2023-05-23T11:46:58;101424.72;;;19.76;56.58
73240;BME280;61452;40.054;4.110;2023-05-23T11:52:02;101420.25;;;19.77;56.59
73240;BME280;61452;40.054;4.110;2023-05-23T11:57:04;101418.44;;;19.77;56.69
73240;BME280;61452;40.054;4.110;2023-05-23T12:02:06;101413.00;;;19.79;56.68
73240;BME280;61452;40.054;4.110;2023-05-23T12:07:09;101415.66;;;19.79;56.65
73240;BME280;61452;40.054;4.110;2023-05-23T12:12:12;101410.34;;;19.79;56.76
73240;BME280;61452;40.054;4.110;2023-05-23T12:17:14;101404.03;;;19.80;56.77
73240;BME280;61452;40.054;4.110;2023-05-23T12:22:22;101395.22;;;19.79;56.43
73240;BME280;61452;40.054;4.110;2023-05-23T12:27:29;101387.22;;;19.79;56.59
73240;BME280;61452;40.054;4.110;2023-05-23T12:32:32;101387.13;;;19.81;56.54
73240;BME280;61452;40.054;4.110;2023-05-23T12:37:38;101390.75;;;19.80;56.60
73240;BME280;61452;40.054;4.110;2023-05-23T12:47:55;101400.44;;;19.81;56.79
73240;BME280;61452;40.054;4.110;2023-05-23T12:52:57;101411.78;;;19.83;56.98
73240;BME280;61452;40.054;4.110;2023-05-23T12:57:59;101409.22;;;19.82;56.76
73240;BME280;61452;40.054;4.110;2023-05-23T13:03:01;101397.75;;;19.81;56.82
73240;BME280;61452;40.054;4.110;2023-05-23T13:08:04;101398.47;;;19.83;56.73
73240;BME280;61452;40.054;4.110;2023-05-23T13:13:06;101395.91;;;19.82;56.80
73240;BME280;61452;40.054;4.110;2023-05-23T13:18:08;101397.50;;;19.84;56.79
73240;BME280;61452;40.054;4.110;2023-05-23T13:23:10;101389.63;;;19.83;56.93
73240;BME280;61452;40.054;4.110;2023-05-23T13:28:12;101400.16;;;19.84;57.00
73240;BME280;61452;40.054;4.110;2023-05-23T13:33:15;101401.97;;;19.84;57.09
73240;BME280;61452;40.054;4.110;2023-05-23T13:38:17;101419.66;;;19.85;56.91
73240;BME280;61452;40.054;4.110;2023-05-23T13:43:20;101425.84;;;19.85;57.01
73240;BME280;61452;40.054;4.110;2023-05-23T13:48:22;101425.94;;;19.84;56.83
73240;BME280;61452;40.054;4.110;2023-05-23T13:53:25;101433.72;;;19.87;57.15
73240;BME280;61452;40.054;4.110;2023-05-23T13:58:27;101429.25;;;19.87;56.81
73240;BME280;61452;40.054;4.110;2023-05-23T14:03:32;101421.25;;;19.87;56.90
73240;BME280;61452;40.054;4.110;2023-05-23T14:08:34;101420.41;;;19.87;56.88
73240;BME280;61452;40.054;4.110;2023-05-23T14:13:36;101418.59;;;19.87;56.98
73240;BME280;61452;40.054;4.110;2023-05-23T14:18:38;101407.09;;;19.87;56.79
73240;BME280;61452;40.054;4.110;2023-05-23T14:23:40;101389.88;;;19.79;56.90
73240;BME280;61452;40.054;4.110;2023-05-23T14:28:43;101397.16;;;19.89;56.88
73240;BME280;61452;40.054;4.110;2023-05-23T14:33:45;101387.44;;;19.88;57.12
73240;BME280;61452;40.054;4.110;2023-05-23T14:38:47;101377.66;;;19.88;56.98
73240;BME280;61452;40.054;4.110;2023-05-23T14:43:50;101373.06;;;19.90;56.83
73240;BME280;61452;40.054;4.110;2023-05-23T14:48:52;101372.22;;;19.90;56.88
73240;BME280;61452;40.054;4.110;2023-05-23T14:53:54;101350.06;;;19.89;56.84
73240;BME280;61452;40.054;4.110;2023-05-23T14:58:57;101342.34;;;19.86;57.21
73240;BME280;61452;40.054;4.110;2023-05-23T15:04:00;101348.13;;;19.91;57.06
73240;BME280;61452;40.054;4.110;2023-05-23T15:09:02;101341.97;;;19.91;56.79
73240;BME280;61452;40.054;4.110;2023-05-23T15:14:05;101343.66;;;19.92;57.13
73240;BME280;61452;40.054;4.110;2023-05-23T15:19:07;101333.88;;;19.92;56.90
73240;BME280;61452;40.054;4.110;2023-05-23T15:24:09;101328.66;;;19.91;57.02
73240;BME280;61452;40.054;4.110;2023-05-23T15:29:12;101325.03;;;19.92;56.95
73240;BME280;61452;40.054;4.110;2023-05-23T15:34:16;101315.94;;;19.94;56.70
73240;BME280;61452;40.054;4.110;2023-05-23T15:39:18;101304.44;;;19.94;57.15
73240;BME280;61452;40.054;4.110;2023-05-23T15:44:21;101290.16;;;19.95;56.96
73240;BME280;61452;40.054;4.110;2023-05-23T15:49:23;101277.00;;;19.93;57.01
73240;BME280;61452;40.054;4.110;2023-05-23T15:54:27;101272.47;;;19.94;56.77
73240;BME280;61452;40.054;4.110;2023-05-23T15:59:30;101267.88;;;19.96;56.81
73240;BME280;61452;40.054;4.110;2023-05-23T16:04:35;101258.09;;;19.96;57.09
73240;BME280;61452;40.054;4.110;2023-05-23T16:09:37;101244.88;;;19.95;57.12
73240;BME280;61452;40.054;4.110;2023-05-23T16:14:39;101239.31;;;19.98;57.00
73240;BME280;61452;40.054;4.110;2023-05-23T16:19:41;101229.66;;;19.97;57.23
73240;BME280;61452;40.054;4.110;2023-05-23T16:24:44;101221.78;;;19.95;57.06
73240;BME280;61452;40.054;4.110;2023-05-23T16:29:46;101221.66;;;19.97;57.21
73240;BME280;61452;40.054;4.110;2023-05-23T16:34:48;101210.03;;;19.98;57.17
73240;BME280;61452;40.054;4.110;2023-05-23T16:39:55;101219.72;;;19.99;57.20
73240;BME280;61452;40.054;4.110;2023-05-23T16:44:57;101212.59;;;19.99;57.24
73240;BME280;61452;40.054;4.110;2023-05-23T16:49:59;101221.28;;;20.01;57.12
73240;BME280;61452;40.054;4.110;2023-05-23T16:55:02;101221.28;;;20.01;57.15
73240;BME280;61452;40.054;4.110;2023-05-23T17:00:05;101215.94;;;20.01;57.07
73240;BME280;61452;40.054;4.110;2023-05-23T17:05:08;101220.31;;;20.02;57.20
73240;BME280;61452;40.054;4.110;2023-05-23T17:10:10;101222.97;;;20.02;57.19
73240;BME280;61452;40.054;4.110;2023-05-23T17:15:12;101229.16;;;20.03;57.18
73240;BME280;61452;40.054;4.110;2023-05-23T17:20:14;101228.19;;;20.04;57.22
73240;BME280;61452;40.054;4.110;2023-05-23T17:25:16;101229.03;;;20.04;57.18
73240;BME280;61452;40.054;4.110;2023-05-23T17:30:18;101232.41;;;20.06;57.09
73240;BME280;61452;40.054;4.110;2023-05-23T17:35:20;101235.31;;;20.03;57.14
73240;BME280;61452;40.054;4.110;2023-05-23T17:40:24;101244.03;;;20.05;57.19
73240;BME280;61452;40.054;4.110;2023-05-23T17:45:26;101254.53;;;20.07;57.11
73240;BME280;61452;40.054;4.110;2023-05-23T17:50:28;101258.78;;;20.09;57.05
73240;BME280;61452;40.054;4.110;2023-05-23T17:55:31;101264.22;;;20.08;56.93
73240;BME280;61452;40.054;4.110;2023-05-23T18:00:33;101266.06;;;20.07;56.96
73240;BME280;61452;40.054;4.110;2023-05-23T18:05:35;101263.28;;;20.09;57.10
73240;BME280;61452;40.054;4.110;2023-05-23T18:10:37;101250.56;;;20.01;57.07
73240;BME280;61452;40.054;4.110;2023-05-23T18:15:39;101270.41;;;20.08;57.04
73240;BME280;61452;40.054;4.110;2023-05-23T18:20:42;101273.06;;;20.08;57.07
73240;BME280;61452;40.054;4.110;2023-05-23T18:25:45;101260.50;;;20.10;56.84
73240;BME280;61452;40.054;4.110;2023-05-23T18:30:47;101275.50;;;20.11;56.86
73240;BME280;61452;40.054;4.110;2023-05-23T18:35:49;101274.66;;;20.11;56.91
73240;BME280;61452;40.054;4.110;2023-05-23T18:40:52;101284.47;;;20.10;56.85
73240;BME280;61452;40.054;4.110;2023-05-23T18:45:54;101287.97;;;20.11;56.81
73240;BME280;61452;40.054;4.110;2023-05-23T18:50:56;101299.34;;;20.13;56.87
73240;BME280;61452;40.054;4.110;2023-05-23T18:55:58;101303.09;;;20.10;56.84
73240;BME280;61452;40.054;4.110;2023-05-23T19:01:00;101311.09;;;20.10;56.76
73240;BME280;61452;40.054;4.110;2023-05-23T19:06:05;101322.34;;;20.14;56.66
73240;BME280;61452;40.054;4.110;2023-05-23T19:11:07;101333.09;;;20.12;56.57
73240;BME280;61452;40.054;4.110;2023-05-23T19:16:11;101335.06;;;20.10;56.70
73240;BME280;61452;40.054;4.110;2023-05-23T19:21:14;101354.31;;;20.14;56.70
73240;BME280;61452;40.054;4.110;2023-05-23T19:26:16;101372.09;;;20.13;56.56
73240;BME280;61452;40.054;4.110;2023-05-23T19:31:21;101370.53;;;20.11;56.59
73240;BME280;61452;40.054;4.110;2023-05-23T19:36:23;101382.03;;;20.11;56.56
73240;BME280;61452;40.054;4.110;2023-05-23T19:41:25;101404.22;;;20.12;56.59
73240;BME280;61452;40.054;4.110;2023-05-23T19:46:28;101412.19;;;20.12;56.64
73240;BME280;61452;40.054;4.110;2023-05-23T19:51:30;101432.75;;;20.10;56.35
73240;BME280;61452;40.054;4.110;2023-05-23T19:56:32;101441.50;;;20.12;56.46
73240;BME280;61452;40.054;4.110;2023-05-23T20:01:36;101452.00;;;20.13;56.64
73240;BME280;61452;40.054;4.110;2023-05-23T20:06:38;101463.50;;;20.14;56.74
73240;BME280;61452;40.054;4.110;2023-05-23T20:11:40;101471.75;;;20.11;56.60
73240;BME280;61452;40.054;4.110;2023-05-23T20:16:43;101472.59;;;20.11;56.44
73240;BME280;61452;40.054;4.110;2023-05-23T20:21:45;101465.47;;;20.12;56.52
73240;BME280;61452;40.054;4.110;2023-05-23T20:26:47;101464.72;;;20.10;56.34
73240;BME280;61452;40.054;4.110;2023-05-23T20:31:49;101469.09;;;20.11;56.39
73240;BME280;61452;40.054;4.110;2023-05-23T20:36:51;101474.16;;;20.14;56.50
73240;BME280;61452;40.054;4.110;2023-05-23T20:41:54;101480.34;;;20.14;56.37
73240;BME280;61452;40.054;4.110;2023-05-23T20:46:56;101488.59;;;20.11;56.51
73240;BME280;61452;40.054;4.110;2023-05-23T20:51:58;101489.28;;;20.13;56.41
73240;BME280;61452;40.054;4.110;2023-05-23T20:57:00;101490.16;;;20.14;56.32
73240;BME280;61452;40.054;4.110;2023-05-23T21:02:03;101491.00;;;20.14;56.06
73240;BME280;61452;40.054;4.110;2023-05-23T21:07:05;101495.72;;;20.11;56.03
73240;BME280;61452;40.054;4.110;2023-05-23T21:12:07;101500.81;;;20.14;56.11
73240;BME280;61452;40.054;4.110;2023-05-23T21:17:10;101500.69;;;20.15;56.27
73240;BME280;61452;40.054;4.110;2023-05-23T21:22:12;101502.63;;;20.13;56.23
73240;BME280;61452;40.054;4.110;2023-05-23T21:27:14;101483.72;;;20.05;56.14
73240;BME280;61452;40.054;4.110;2023-05-23T21:32:16;101492.09;;;20.12;56.47
73240;BME280;61452;40.054;4.110;2023-05-23T21:37:19;101492.22;;;20.10;56.53
73240;BME280;61452;40.054;4.110;2023-05-23T21:42:21;101506.13;;;20.14;56.23
73240;BME280;61452;40.054;4.110;2023-05-23T21:47:23;101494.63;;;20.13;56.14
73240;BME280;61452;40.054;4.110;2023-05-23T21:52:25;101498.41;;;20.11;55.92
73240;BME280;61452;40.054;4.110;2023-05-23T21:57:27;101505.28;;;20.13;56.07
73240;BME280;61452;40.054;4.110;2023-05-23T22:02:29;101497.44;;;20.12;56.05
73240;BME280;61452;40.054;4.110;2023-05-23T22:07:32;101494.78;;;20.12;55.65
73240;BME280;61452;40.054;4.110;2023-05-23T22:12:34;101498.13;;;20.14;55.92
73240;BME280;61452;40.054;4.110;2023-05-23T22:17:36;101488.22;;;20.05;55.96
73240;BME280;61452;40.054;4.110;2023-05-23T22:22:44;101498.41;;;20.11;56.13
73240;BME280;61452;40.054;4.110;2023-05-23T22:27:46;101513.28;;;20.13;56.08
73240;BME280;61452;40.054;4.110;2023-05-23T22:32:48;101520.31;;;20.14;55.91
73240;BME280;61452;40.054;4.110;2023-05-23T22:37:50;101522.13;;;20.14;55.87
73240;BME280;61452;40.054;4.110;2023-05-23T22:42:52;101505.41;;;20.12;55.96
73240;BME280;61452;40.054;4.110;2023-05-23T22:47:54;101500.91;;;20.12;55.94
73240;BME280;61452;40.054;4.110;2023-05-23T22:52:56;101506.13;;;20.14;56.08
73240;BME280;61452;40.054;4.110;2023-05-23T22:57:59;101508.78;;;20.14;56.16
73240;BME280;61452;40.054;4.110;2023-05-23T23:03:01;101508.09;;;20.12;56.06
73240;BME280;61452;40.054;4.110;2023-05-23T23:08:04;101513.28;;;20.13;56.14
73240;BME280;61452;40.054;4.110;2023-05-23T23:13:07;101507.94;;;20.13;56.16
73240;BME280;61452;40.054;4.110;2023-05-23T23:18:09;101513.28;;;20.13;55.93
73240;BME280;61452;40.054;4.110;2023-05-23T23:23:14;101512.56;;;20.11;56.07
73240;BME280;61452;40.054;4.110;2023-05-23T23:28:16;101505.28;;;20.13;56.07
73240;BME280;61452;40.054;4.110;2023-05-23T23:33:18;101499.94;;;20.13;56.08
73240;BME280;61452;40.054;4.110;2023-05-23T23:38:20;101492.91;;;20.12;55.90
73240;BME280;61452;40.054;4.110;2023-05-23T23:43:22;101494.78;;;20.12;56.10
73240;BME280;61452;40.054;4.110;2023-05-23T23:48:24;101497.44;;;20.12;56.01
73240;BME280;61452;40.054;4.110;2023-05-23T23:53:26;101492.22;;;20.10;56.16
73240;BME280;61452;40.054;4.110;2023-05-23T23:58:28;101494.03;;;20.10;56.12
